Time;durP1;ratioP1;P1;durP2;ratioP2;P2;SDS_P1;SDS_P2;PMS_P1;PMS_P2;Temp;Humidity;BMP_temperature;BMP_pressure;BME280_temperature;BME280_humidity;BME280_pressure;Samples;Min_cycle;Max_cycle;Signal;HPM_P1;HPM_P2
2021/05/03 00:01:18;;;;;;;3.88;2.78;;;6.30;92.90;;;;;;4975306;28;20035;-38
2021/05/03 00:03:43;;;;;;;4.05;2.50;;;6.30;92.90;;;;;;4967865;28;20053;-39
2021/05/03 00:06:09;;;;;;;3.60;3.10;;;6.30;92.90;;;;;;4976712;28;20103;-37
2021/05/03 00:08:35;;;;;;;2.85;2.53;;;6.40;93.00;;;;;;4981842;28;20033;-35
2021/05/03 00:11:00;;;;;;;3.28;2.65;;;6.30;93.00;;;;;;4973414;28;20037;-38
2021/05/03 00:13:26;;;;;;;3.00;2.70;;;6.30;93.10;;;;;;4972344;28;20041;-39
2021/05/03 00:15:53;;;;;;;3.00;2.70;;;6.20;93.10;;;;;;4969290;28;20026;-39
2021/05/03 00:18:19;;;;;;;4.30;3.13;;;6.20;93.20;;;;;;4975506;28;20715;-39
2021/05/03 00:20:45;;;;;;;4.97;3.25;;;6.10;93.30;;;;;;4966749;28;20109;-36
2021/05/03 00:23:12;;;;;;;3.55;2.80;;;6.10;93.50;;;;;;4977294;28;20512;-36
2021/05/03 00:25:37;;;;;;;3.45;2.75;;;6.10;93.50;;;;;;4967543;28;20037;-39
2021/05/03 00:28:03;;;;;;;3.63;3.03;;;6.00;93.50;;;;;;4976507;28;20030;-39
2021/05/03 00:30:29;;;;;;;3.47;2.60;;;6.00;93.60;;;;;;4966385;28;20034;-36
2021/05/03 00:32:54;;;;;;;4.68;3.40;;;6.00;93.70;;;;;;4976413;28;20026;-39
2021/05/03 00:35:20;;;;;;;4.07;3.22;;;5.90;93.80;;;;;;4966071;28;20038;-35
2021/05/03 00:37:45;;;;;;;3.28;2.90;;;5.90;93.80;;;;;;4978055;28;20080;-34
2021/05/03 00:40:11;;;;;;;3.35;3.05;;;5.80;93.90;;;;;;4966386;28;20058;-36
2021/05/03 00:42:38;;;;;;;4.10;3.30;;;5.80;94.00;;;;;;4975914;28;20026;-34
2021/05/03 00:45:17;;;;;;;4.07;3.05;;;5.70;94.00;;;;;;4966895;28;20030;-37
2021/05/03 00:47:42;;;;;;;2.92;2.72;;;5.70;94.20;;;;;;4975840;28;20022;-39
2021/05/03 00:50:10;;;;;;;3.67;3.05;;;5.70;94.20;;;;;;4967870;28;20046;-37
2021/05/03 00:52:37;;;;;;;4.85;3.22;;;5.70;94.30;;;;;;4973655;28;20023;-38
2021/05/03 00:55:04;;;;;;;4.40;3.38;;;5.60;94.30;;;;;;4970109;28;20158;-38
2021/05/03 00:57:30;;;;;;;4.03;3.25;;;5.60;94.40;;;;;;4970377;28;20022;-37
2021/05/03 00:59:56;;;;;;;3.85;3.05;;;5.60;94.40;;;;;;4972820;28;20034;-37
2021/05/03 01:02:22;;;;;;;5.57;4.00;;;5.60;94.50;;;;;;4968257;28;20034;-36
2021/05/03 01:04:47;;;;;;;4.90;2.97;;;5.60;94.60;;;;;;4974917;28;20098;-38
2021/05/03 01:07:13;;;;;;;3.50;3.20;;;5.50;94.60;;;;;;4967301;28;20027;-38
2021/05/03 01:09:38;;;;;;;3.97;3.20;;;5.50;94.60;;;;;;4982950;28;20030;-38
2021/05/03 01:12:05;;;;;;;3.70;3.15;;;5.50;94.60;;;;;;4983613;28;20096;-38
2021/05/03 01:14:30;;;;;;;3.67;3.10;;;5.50;94.60;;;;;;4974122;28;20480;-35
2021/05/03 01:16:56;;;;;;;3.92;3.53;;;5.40;94.60;;;;;;4984929;28;20113;-37
2021/05/03 01:19:21;;;;;;;5.18;3.63;;;5.40;94.80;;;;;;4972978;28;20702;-38
2021/05/03 01:21:48;;;;;;;4.13;3.00;;;5.40;94.80;;;;;;4984605;28;20109;-36
2021/05/03 01:24:18;;;;;;;3.67;3.10;;;5.40;94.80;;;;;;4972396;28;20034;-38
2021/05/03 01:26:44;;;;;;;4.70;3.70;;;5.40;94.90;;;;;;4985052;28;20050;-38
2021/05/03 01:29:10;;;;;;;4.90;3.33;;;5.40;94.90;;;;;;4974480;28;20271;-38
2021/05/03 01:31:36;;;;;;;4.18;3.70;;;5.40;95.00;;;;;;4983150;28;20094;-38
2021/05/03 01:34:05;;;;;;;4.55;3.60;;;5.40;95.00;;;;;;4976677;28;20515;-38
2021/05/03 01:36:34;;;;;;;3.85;3.50;;;5.40;95.00;;;;;;4981631;28;20048;-37
2021/05/03 01:39:00;;;;;;;7.28;3.50;;;5.40;95.00;;;;;;4977776;28;20091;-37
2021/05/03 01:41:28;;;;;;;4.50;3.78;;;5.40;95.10;;;;;;4979633;28;20116;-38
2021/05/03 01:43:53;;;;;;;3.80;3.40;;;5.40;95.10;;;;;;4980641;28;20442;-38
2021/05/03 01:46:33;;;;;;;4.00;3.60;;;5.30;95.10;;;;;;4976487;28;20169;-38
2021/05/03 01:49:00;;;;;;;4.13;3.42;;;5.30;95.20;;;;;;4981633;28;20026;-36
2021/05/03 01:51:26;;;;;;;3.40;3.10;;;5.20;95.20;;;;;;4976065;28;20030;-36
2021/05/03 01:53:52;;;;;;;4.30;3.65;;;5.20;95.30;;;;;;4983023;28;20585;-37
2021/05/03 01:56:18;;;;;;;3.95;3.50;;;5.20;95.30;;;;;;4976305;28;20477;-37
2021/05/03 01:58:43;;;;;;;4.28;3.70;;;5.20;95.30;;;;;;4986645;28;20109;-37
2021/05/03 02:01:09;;;;;;;5.50;4.07;;;5.10;95.40;;;;;;4977453;28;20046;-39
2021/05/03 02:03:35;;;;;;;5.28;3.83;;;5.10;95.40;;;;;;4988299;28;20031;-38
2021/05/03 02:06:04;;;;;;;4.00;3.60;;;5.10;95.50;;;;;;4975960;28;20030;-38
2021/05/03 02:08:30;;;;;;;3.55;3.25;;;5.00;95.50;;;;;;4988857;28;20117;-38
2021/05/03 02:10:56;;;;;;;4.07;3.65;;;5.00;95.60;;;;;;4975978;28;20498;-38
2021/05/03 02:13:23;;;;;;;4.35;3.95;;;5.00;95.60;;;;;;4987927;28;20113;-38
2021/05/03 02:15:50;;;;;;;3.97;3.53;;;5.00;95.60;;;;;;4976525;28;20051;-38
2021/05/03 02:18:16;;;;;;;4.50;3.70;;;4.90;95.70;;;;;;4986945;28;20426;-36
2021/05/03 02:20:43;;;;;;;5.40;3.95;;;4.90;95.70;;;;;;4978180;28;20518;-39
2021/05/03 02:23:09;;;;;;;5.15;3.83;;;4.90;95.70;;;;;;4984782;28;20059;-39
2021/05/03 02:25:35;;;;;;;5.03;4.28;;;4.90;95.80;;;;;;4980755;28;20109;-38
2021/05/03 02:28:00;;;;;;;4.90;4.30;;;4.90;95.80;;;;;;4982065;28;20105;-38
2021/05/03 02:30:28;;;;;;;5.25;4.57;;;4.90;95.90;;;;;;4984200;28;20054;-38
2021/05/03 02:32:56;;;;;;;5.78;4.25;;;4.90;95.90;;;;;;4979990;28;20111;-36
2021/05/03 02:35:24;;;;;;;5.25;4.20;;;4.80;95.90;;;;;;4985014;28;20042;-35
2021/05/03 02:37:54;;;;;;;5.07;4.47;;;4.80;95.90;;;;;;4977816;28;20019;-38
2021/05/03 02:40:30;;;;;;;4.55;4.07;;;4.80;95.90;;;;;;4988077;28;20181;-38
2021/05/03 02:42:59;;;;;;;6.55;4.32;;;4.80;96.00;;;;;;4988278;28;20537;-39
2021/05/03 02:45:26;;;;;;;4.80;4.30;;;4.80;96.00;;;;;;4987144;28;20027;-39
2021/05/03 02:47:51;;;;;;;4.63;4.13;;;4.70;95.90;;;;;;4975483;28;20101;-38
2021/05/03 02:50:19;;;;;;;5.28;4.53;;;4.70;95.90;;;;;;4986695;28;20109;-39
2021/05/03 02:52:45;;;;;;;5.35;4.00;;;4.70;96.00;;;;;;4976638;28;20018;-38
2021/05/03 02:55:12;;;;;;;4.95;4.45;;;4.70;96.00;;;;;;4987389;28;20238;-37
2021/05/03 02:57:38;;;;;;;6.65;4.85;;;4.70;96.00;;;;;;4974865;28;20053;-36
2021/05/03 03:00:06;;;;;;;6.75;4.90;;;4.70;96.00;;;;;;4987107;28;20928;-39
2021/05/03 03:02:32;;;;;;;5.80;5.00;;;4.70;96.10;;;;;;4974590;28;20438;-38
2021/05/03 03:04:58;;;;;;;6.53;5.20;;;4.70;96.10;;;;;;4987353;28;20438;-36
2021/05/03 03:07:23;;;;;;;6.47;4.72;;;4.70;96.20;;;;;;4977220;28;20647;-39
2021/05/03 03:09:49;;;;;;;8.48;5.18;;;4.70;96.20;;;;;;4977536;28;20193;-34
2021/05/03 03:12:14;;;;;;;6.60;5.65;;;4.70;96.20;;;;;;4974503;28;20031;-39
2021/05/03 03:14:41;;;;;;;6.90;5.28;;;4.70;96.20;;;;;;4972332;28;20058;-38
2021/05/03 03:17:08;;;;;;;7.70;6.32;;;4.70;96.30;;;;;;4972147;28;20366;-39
2021/05/03 03:19:37;;;;;;;8.90;5.93;;;4.70;96.30;;;;;;4974386;28;20583;-38
2021/05/03 03:22:03;;;;;;;6.35;5.35;;;4.70;96.30;;;;;;4970496;28;20078;-39
2021/05/03 03:24:29;;;;;;;6.20;5.60;;;4.70;96.30;;;;;;4976040;28;20038;-38
2021/05/03 03:26:54;;;;;;;7.88;5.80;;;4.60;96.40;;;;;;4968621;28;20019;-38
2021/05/03 03:29:20;;;;;;;7.25;5.50;;;4.60;96.40;;;;;;4978644;28;20054;-36
2021/05/03 03:31:45;;;;;;;7.15;5.53;;;4.60;96.40;;;;;;4967913;28;20050;-35
2021/05/03 03:34:11;;;;;;;6.05;5.45;;;4.60;96.50;;;;;;4978222;28;20077;-38
2021/05/03 03:36:37;;;;;;;7.07;5.38;;;4.60;96.50;;;;;;4967265;28;20471;-39
2021/05/03 03:39:05;;;;;;;6.75;5.55;;;4.50;96.40;;;;;;4978493;28;20110;-37
2021/05/03 03:41:31;;;;;;;7.40;6.05;;;4.50;96.50;;;;;;4967062;28;20073;-38
2021/05/03 03:43:57;;;;;;;6.47;5.55;;;4.50;96.50;;;;;;4978546;28;20033;-38
2021/05/03 03:46:22;;;;;;;7.38;5.82;;;4.50;96.50;;;;;;4967364;28;20101;-37
2021/05/03 03:48:48;;;;;;;6.40;5.70;;;4.50;96.60;;;;;;4976719;28;20037;-38
2021/05/03 03:51:14;;;;;;;8.38;6.45;;;4.60;96.60;;;;;;4968452;28;20034;-37
2021/05/03 03:53:42;;;;;;;8.18;5.90;;;4.60;96.60;;;;;;4974224;28;20026;-39
2021/05/03 03:56:08;;;;;;;8.57;5.60;;;4.60;96.60;;;;;;4971114;28;20078;-38
2021/05/03 03:58:34;;;;;;;9.45;6.30;;;4.60;96.60;;;;;;4971860;28;20022;-38
2021/05/03 04:00:59;;;;;;;6.55;5.78;;;4.60;96.60;;;;;;4972727;28;20023;-38
2021/05/03 04:03:26;;;;;;;7.55;6.45;;;4.60;96.60;;;;;;4970110;28;20058;-37
2021/05/03 04:06:20;;;;;;;6.72;5.95;;;4.70;96.60;;;;;;4975027;28;20140;-37
2021/05/03 04:08:58;;;;;;;8.00;6.63;;;4.70;96.60;;;;;;4970242;28;20057;-36
2021/05/03 04:27:23;;;;;;;6.60;5.80;;;4.70;96.30;;;;;;4968214;28;20049;-35
2021/05/03 04:29:52;;;;;;;6.15;5.55;;;4.70;96.30;;;;;;4972853;28;20026;-38
2021/05/03 04:32:18;;;;;;;7.43;6.03;;;4.60;96.30;;;;;;4970738;28;20035;-36
2021/05/03 04:34:43;;;;;;;7.25;6.35;;;4.70;96.40;;;;;;4970293;28;20030;-38
2021/05/03 04:37:09;;;;;;;7.63;6.82;;;4.60;96.30;;;;;;4972835;28;20062;-38
2021/05/03 04:39:34;;;;;;;9.52;6.25;;;4.60;96.40;;;;;;4968247;28;20133;-38
2021/05/03 04:42:00;;;;;;;7.65;6.35;;;4.70;96.40;;;;;;4975210;28;20058;-38
2021/05/03 04:44:25;;;;;;;7.75;6.65;;;4.70;96.40;;;;;;4967623;28;20466;-38
2021/05/03 04:46:53;;;;;;;7.93;6.75;;;4.70;96.30;;;;;;4975756;28;20015;-39
2021/05/03 04:49:19;;;;;;;8.70;7.07;;;4.80;96.30;;;;;;4966675;28;20035;-39
2021/05/03 04:51:45;;;;;;;7.93;6.97;;;4.80;96.30;;;;;;4976599;28;20382;-36
2021/05/03 04:54:10;;;;;;;8.82;7.32;;;4.80;96.20;;;;;;4965989;28;20038;-38
2021/05/03 04:56:36;;;;;;;13.65;8.38;;;4.90;96.20;;;;;;4977383;28;20023;-36
2021/05/03 04:59:01;;;;;;;10.27;8.10;;;4.90;96.20;;;;;;4965793;28;20031;-34
2021/05/03 05:01:27;;;;;;;9.55;7.82;;;4.90;96.10;;;;;;4977090;28;20759;-38
2021/05/03 05:03:52;;;;;;;11.98;8.73;;;5.00;96.30;;;;;;4965099;28;20621;-37
2021/05/03 05:06:18;;;;;;;8.13;7.10;;;5.00;96.20;;;;;;4970058;28;20046;-38
2021/05/03 05:08:43;;;;;;;11.00;8.65;;;5.00;96.10;;;;;;4982096;28;20026;-39
2021/05/03 05:11:09;;;;;;;9.50;8.35;;;5.10;96.10;;;;;;4975878;28;20105;-37
2021/05/03 05:13:34;;;;;;;11.10;8.98;;;5.10;96.10;;;;;;4970533;28;20041;-37
2021/05/03 05:16:00;;;;;;;10.23;7.72;;;5.10;96.10;;;;;;4968892;28;20112;-37
2021/05/03 05:18:25;;;;;;;9.70;7.88;;;5.20;96.00;;;;;;4972959;28;20100;-38
2021/05/03 05:20:51;;;;;;;11.88;7.55;;;5.30;96.00;;;;;;4966847;28;20023;-38
2021/05/03 05:23:17;;;;;;;8.13;7.20;;;5.30;95.90;;;;;;4975630;28;20027;-38
2021/05/03 05:25:45;;;;;;;8.40;7.53;;;5.30;95.90;;;;;;4966672;28;20026;-38
2021/05/03 05:28:11;;;;;;;11.63;7.82;;;5.40;95.90;;;;;;4976446;28;20031;-36
2021/05/03 05:30:36;;;;;;;8.80;7.10;;;5.50;95.90;;;;;;4967124;28;20038;-38
2021/05/03 05:33:02;;;;;;;9.80;6.85;;;5.50;95.80;;;;;;4980349;28;20035;-38
2021/05/03 05:35:30;;;;;;;8.18;7.38;;;5.50;95.80;;;;;;4969474;28;20495;-37
2021/05/03 05:37:56;;;;;;;9.55;7.00;;;5.50;95.70;;;;;;4980823;28;20014;-38
2021/05/03 05:40:21;;;;;;;8.68;7.78;;;5.60;95.80;;;;;;4969636;28;20037;-38
2021/05/03 05:42:47;;;;;;;10.60;8.15;;;5.70;95.80;;;;;;4980712;28;20540;-37
2021/05/03 05:45:13;;;;;;;9.73;7.95;;;5.70;95.80;;;;;;4969251;28;20030;-35
2021/05/03 05:47:38;;;;;;;9.68;7.97;;;5.70;95.80;;;;;;4978405;28;20053;-37
2021/05/03 05:50:08;;;;;;;11.60;8.48;;;5.70;95.80;;;;;;4972282;28;20528;-41
2021/05/03 05:52:33;;;;;;;8.82;7.43;;;5.80;95.70;;;;;;4972916;28;20029;-38
2021/05/03 05:54:59;;;;;;;11.18;7.43;;;5.80;95.70;;;;;;4971822;28;20060;-36
2021/05/03 05:57:24;;;;;;;12.93;8.32;;;5.80;95.60;;;;;;4973534;28;20030;-36
2021/05/03 05:59:50;;;;;;;10.57;7.43;;;5.90;95.70;;;;;;4982467;28;20037;-37
2021/05/03 06:02:15;;;;;;;9.50;7.97;;;5.90;95.60;;;;;;4982903;28;20113;-38
2021/05/03 06:04:41;;;;;;;10.82;7.80;;;5.90;95.60;;;;;;4980897;28;20327;-37
2021/05/03 06:07:13;;;;;;;7.43;6.63;;;5.90;95.60;;;;;;4986101;28;20034;-38
2021/05/03 06:09:39;;;;;;;8.10;6.50;;;6.00;95.60;;;;;;4978803;28;20121;-38
2021/05/03 06:12:05;;;;;;;9.05;7.13;;;6.00;95.60;;;;;;4984696;28;20030;-35
2021/05/03 06:14:30;;;;;;;8.70;7.47;;;6.00;95.50;;;;;;4980367;28;20150;-38
2021/05/03 06:16:59;;;;;;;9.73;6.90;;;6.00;95.50;;;;;;4987885;28;20031;-39
2021/05/03 06:19:25;;;;;;;9.43;7.78;;;6.10;95.50;;;;;;4971679;28;20031;-39
2021/05/03 06:21:50;;;;;;;10.90;8.27;;;6.10;95.60;;;;;;4987393;28;20482;-40
2021/05/03 06:24:16;;;;;;;9.85;7.82;;;6.20;95.60;;;;;;4975692;28;20023;-39
2021/05/03 06:26:41;;;;;;;10.55;7.38;;;6.20;95.60;;;;;;4986546;28;20026;-38
2021/05/03 06:29:07;;;;;;;11.68;7.53;;;6.20;95.50;;;;;;4982985;28;20038;-38
2021/05/03 06:31:32;;;;;;;9.57;7.10;;;6.30;95.50;;;;;;4982867;28;20030;-39
2021/05/03 06:34:01;;;;;;;10.80;7.00;;;6.40;95.50;;;;;;4982999;28;20041;-39
2021/05/03 06:36:26;;;;;;;10.30;7.55;;;6.50;95.40;;;;;;4973207;28;20034;-39
2021/05/03 06:38:52;;;;;;;7.68;6.45;;;6.60;95.30;;;;;;4972418;28;20026;-38
2021/05/03 06:41:20;;;;;;;7.70;6.32;;;6.70;95.30;;;;;;4974779;28;20030;-40
2021/05/03 06:43:46;;;;;;;8.98;6.47;;;6.70;95.20;;;;;;4969946;28;20054;-38
2021/05/03 06:46:11;;;;;;;9.70;7.60;;;6.90;95.10;;;;;;4977644;28;20509;-38
2021/05/03 06:48:37;;;;;;;8.82;7.28;;;6.90;94.90;;;;;;4977756;28;20023;-36
2021/05/03 06:51:02;;;;;;;8.43;6.70;;;7.00;94.70;;;;;;4978514;28;20057;-37
2021/05/03 06:53:28;;;;;;;8.90;7.25;;;7.10;94.60;;;;;;4968817;28;20026;-40
2021/05/03 06:55:54;;;;;;;10.27;7.53;;;7.10;94.50;;;;;;4978247;28;20324;-39
2021/05/03 06:58:19;;;;;;;10.88;7.90;;;7.20;94.40;;;;;;4968316;28;20061;-40
2021/05/03 07:00:45;;;;;;;9.02;7.03;;;7.30;94.30;;;;;;4979520;28;20164;-40
2021/05/03 07:03:12;;;;;;;8.45;7.10;;;7.30;94.10;;;;;;4967287;28;20035;-39
2021/05/03 07:05:39;;;;;;;7.78;6.38;;;7.40;94.10;;;;;;4980030;28;20140;-39
2021/05/03 07:08:09;;;;;;;10.13;7.57;;;7.50;94.10;;;;;;4967152;28;20027;-38
2021/05/03 07:10:38;;;;;;;8.80;7.00;;;7.50;93.90;;;;;;4979437;28;20041;-39
2021/05/03 07:13:04;;;;;;;8.45;6.47;;;7.60;93.60;;;;;;4967512;28;20035;-36
2021/05/03 07:15:30;;;;;;;6.28;5.38;;;7.70;93.60;;;;;;4975047;28;20442;-38
2021/05/03 07:17:56;;;;;;;6.90;5.53;;;7.80;93.60;;;;;;4971498;28;20046;-39
2021/05/03 07:20:22;;;;;;;6.40;5.80;;;7.90;93.50;;;;;;4973607;28;20021;-37
2021/05/03 07:22:48;;;;;;;9.65;6.80;;;8.00;93.30;;;;;;4972691;28;20110;-39
2021/05/03 07:25:14;;;;;;;9.13;6.63;;;8.10;92.90;;;;;;4971451;28;20114;-37
2021/05/03 07:27:40;;;;;;;6.65;5.82;;;8.10;92.80;;;;;;4975462;28;20031;-38
2021/05/03 07:30:09;;;;;;;7.28;6.40;;;8.10;92.80;;;;;;4968628;28;20008;-39
2021/05/03 07:32:35;;;;;;;8.15;6.20;;;8.10;92.80;;;;;;4967182;28;20041;-38
2021/05/03 07:35:02;;;;;;;6.93;5.60;;;8.20;93.10;;;;;;4972145;28;20038;-39
2021/05/03 07:37:27;;;;;;;8.43;6.18;;;8.30;92.80;;;;;;4969110;28;20019;-37
2021/05/03 07:39:54;;;;;;;6.70;6.03;;;8.40;92.50;;;;;;4967093;28;20424;-37
2021/05/03 07:42:19;;;;;;;7.65;6.68;;;8.50;92.50;;;;;;4980640;28;21333;-38
2021/05/03 07:44:45;;;;;;;9.02;7.88;;;8.50;92.50;;;;;;4982655;28;20504;-39
2021/05/03 07:47:10;;;;;;;11.57;7.30;;;8.60;92.20;;;;;;4980747;28;20022;-36
2021/05/03 07:49:39;;;;;;;10.57;8.45;;;8.70;92.20;;;;;;4966905;28;20117;-39
2021/05/03 07:52:11;;;;;;;15.45;9.73;;;8.80;92.00;;;;;;4978886;28;20038;-38
2021/05/03 07:54:37;;;;;;;12.75;10.00;;;9.00;91.90;;;;;;4971810;28;20084;-37
2021/05/03 07:57:02;;;;;;;13.73;10.63;;;9.10;91.80;;;;;;4976384;28;20054;-39
2021/05/03 07:59:28;;;;;;;14.65;11.55;;;9.30;91.70;;;;;;4984486;28;20030;-39
2021/05/03 08:01:54;;;;;;;17.65;13.30;;;9.40;91.80;;;;;;4978974;28;20051;-39
2021/05/03 08:04:20;;;;;;;16.58;14.13;;;9.60;91.80;;;;;;4981431;28;20033;-42
2021/05/03 08:06:47;;;;;;;17.88;14.20;;;9.70;91.60;;;;;;4981163;28;20073;-40
2021/05/03 08:09:12;;;;;;;22.38;17.65;;;9.80;91.50;;;;;;4979895;28;20022;-43
2021/05/03 08:11:44;;;;;;;20.27;15.68;;;9.90;91.20;;;;;;4969862;28;20034;-38
2021/05/03 08:14:12;;;;;;;19.53;16.07;;;9.90;91.20;;;;;;4975719;28;20031;-39
2021/05/03 08:16:41;;;;;;;20.38;16.83;;;10.00;91.40;;;;;;4967451;28;20027;-39
2021/05/03 08:19:07;;;;;;;22.42;17.17;;;10.10;91.20;;;;;;4974983;28;20023;-38
2021/05/03 08:21:32;;;;;;;18.50;14.98;;;10.10;91.00;;;;;;4983088;28;20023;-37
2021/05/03 08:23:59;;;;;;;20.65;16.17;;;10.20;91.00;;;;;;4976230;28;20054;-40
2021/05/03 08:26:24;;;;;;;23.27;17.48;;;10.20;90.90;;;;;;4966237;28;20557;-35
2021/05/03 08:28:50;;;;;;;19.63;15.60;;;10.20;90.70;;;;;;4974956;28;20035;-35
2021/05/03 08:31:16;;;;;;;20.42;16.92;;;10.20;90.80;;;;;;4972600;28;20026;-38
2021/05/03 08:33:42;;;;;;;20.13;16.33;;;10.30;91.00;;;;;;4982323;28;20026;-38
2021/05/03 08:36:10;;;;;;;21.50;16.63;;;10.40;91.00;;;;;;4974542;28;20085;-38
2021/05/03 08:38:36;;;;;;;18.15;15.02;;;10.50;90.90;;;;;;4981662;28;20049;-38
2021/05/03 08:41:03;;;;;;;20.27;16.52;;;10.60;90.90;;;;;;4966312;28;20757;-39
2021/05/03 08:43:31;;;;;;;19.58;16.17;;;10.70;90.90;;;;;;4974310;28;20451;-38
2021/05/03 08:45:56;;;;;;;18.00;15.95;;;10.80;90.50;;;;;;4982895;28;20033;-40
2021/05/03 08:48:29;;;;;;;18.38;15.38;;;10.80;90.50;;;;;;4978449;28;20023;-39
2021/05/03 08:51:09;;;;;;;20.33;16.30;;;10.90;90.30;;;;;;4980293;28;20536;-37
2021/05/03 08:53:40;;;;;;;17.67;15.15;;;11.00;90.20;;;;;;4977642;28;20465;-38
2021/05/03 08:56:05;;;;;;;21.67;15.60;;;11.00;90.10;;;;;;4981075;28;20045;-38
2021/05/03 08:58:34;;;;;;;21.27;16.13;;;11.00;90.10;;;;;;4979985;28;20034;-40
2021/05/03 09:01:03;;;;;;;19.90;15.73;;;11.10;89.90;;;;;;4978585;28;20019;-40
2021/05/03 09:03:29;;;;;;;23.63;15.90;;;11.10;89.80;;;;;;4981805;28;20034;-38
2021/05/03 09:06:01;;;;;;;17.92;15.75;;;11.20;89.80;;;;;;4975901;28;20418;-39
2021/05/03 09:08:28;;;;;;;18.02;15.50;;;11.30;89.70;;;;;;4978861;28;20031;-39
2021/05/03 09:10:55;;;;;;;18.98;16.55;;;11.40;89.30;;;;;;4973713;28;20041;-35
2021/05/03 09:13:30;;;;;;;19.65;16.40;;;11.40;88.90;;;;;;4969379;28;20529;-38
2021/05/03 09:16:15;;;;;;;20.25;15.88;;;11.40;88.50;;;;;;4979110;28;20042;-39
2021/05/03 09:18:42;;;;;;;18.08;14.70;;;11.50;88.30;;;;;;4979287;28;20015;-40
2021/05/03 09:21:18;;;;;;;17.52;15.40;;;11.60;88.10;;;;;;4976645;28;20082;-39
2021/05/03 09:24:04;;;;;;;16.50;14.23;;;11.70;87.80;;;;;;4966450;28;20010;-39
2021/05/03 09:26:40;;;;;;;18.38;15.20;;;11.80;87.30;;;;;;4975895;28;20030;-38
2021/05/03 09:29:28;;;;;;;17.27;14.93;;;11.90;87.30;;;;;;4980404;28;20100;-40
2021/05/03 09:32:03;;;;;;;16.58;14.85;;;11.90;87.40;;;;;;4973187;28;20035;-43
2021/05/03 09:34:33;;;;;;;15.68;13.90;;;12.00;87.00;;;;;;4968609;28;20050;-38
2021/05/03 09:37:29;;;;;;;14.20;12.70;;;12.10;87.40;;;;;;4973901;28;20031;-38
2021/05/03 09:40:02;;;;;;;18.67;14.25;;;12.10;86.10;;;;;;4969293;28;20092;-40
2021/05/03 09:42:42;;;;;;;14.82;13.25;;;12.20;86.10;;;;;;4971105;28;20035;-40
2021/05/03 09:45:11;;;;;;;14.02;12.35;;;12.30;84.40;;;;;;4970626;28;20041;-41
2021/05/03 09:47:39;;;;;;;14.18;12.30;;;12.30;84.00;;;;;;4972219;28;20041;-39
2021/05/03 09:50:12;;;;;;;14.18;12.68;;;12.40;84.20;;;;;;4969250;28;20031;-43
2021/05/03 09:52:38;;;;;;;17.00;14.10;;;12.50;84.20;;;;;;4972865;28;20137;-39
2021/05/03 09:55:24;;;;;;;13.98;12.27;;;12.60;84.40;;;;;;4967447;28;20023;-42
2021/05/03 09:58:10;;;;;;;14.93;13.38;;;12.70;84.40;;;;;;4977824;28;20088;-41
2021/05/03 10:00:38;;;;;;;19.10;14.63;;;12.80;83.30;;;;;;4980043;28;20096;-40
2021/05/03 10:03:49;;;;;;;13.98;12.13;;;12.90;82.10;;;;;;4977667;28;20030;-38
2021/05/03 10:06:20;;;;;;;15.20;13.63;;;13.00;81.40;;;;;;4980768;28;20030;-39
2021/05/03 10:08:51;;;;;;;15.02;12.90;;;13.00;80.10;;;;;;4980899;28;20018;-41
2021/05/03 10:11:17;;;;;;;17.00;15.13;;;13.00;81.00;;;;;;4975027;28;20062;-38
2021/05/03 10:13:47;;;;;;;15.73;14.02;;;13.00;81.10;;;;;;4983991;28;20026;-38
2021/05/03 10:16:14;;;;;;;15.20;12.75;;;13.10;81.50;;;;;;4978824;28;20061;-37
2021/05/03 10:18:41;;;;;;;13.77;12.38;;;13.20;81.40;;;;;;4980444;28;20022;-35
2021/05/03 10:21:09;;;;;;;16.92;13.45;;;13.30;80.60;;;;;;4986664;28;20034;-38
2021/05/03 10:23:36;;;;;;;13.90;12.40;;;13.40;80.40;;;;;;4978422;28;20041;-39
2021/05/03 10:26:02;;;;;;;13.68;11.95;;;13.50;80.00;;;;;;4985664;28;20022;-34
2021/05/03 10:28:28;;;;;;;15.00;12.07;;;13.60;79.10;;;;;;4986743;28;20038;-38
2021/05/03 10:30:59;;;;;;;14.20;12.00;;;13.60;79.30;;;;;;4973514;28;20440;-40
2021/05/03 10:33:35;;;;;;;14.15;12.65;;;13.70;79.10;;;;;;4975378;28;20110;-41
2021/05/03 10:36:01;;;;;;;14.98;13.32;;;13.80;78.80;;;;;;4985844;28;20053;-39
2021/05/03 10:38:30;;;;;;;16.42;12.85;;;13.80;77.00;;;;;;4979174;28;20053;-40
2021/05/03 10:41:00;;;;;;;16.88;13.35;;;13.90;77.90;;;;;;4968226;28;20478;-39
2021/05/03 10:43:35;;;;;;;14.00;12.20;;;13.90;76.90;;;;;;4979354;28;20018;-36
2021/05/03 10:46:50;;;;;;;13.98;11.70;;;14.00;76.20;;;;;;4968009;28;20101;-39
2021/05/03 10:49:19;;;;;;;15.80;12.90;;;14.00;76.00;;;;;;4978517;28;20463;-39
2021/05/03 10:51:50;;;;;;;13.95;12.55;;;14.10;76.20;;;;;;4969413;28;20812;-37
2021/05/03 10:54:25;;;;;;;13.82;12.10;;;14.20;75.80;;;;;;4978505;28;20043;-34
2021/05/03 10:56:53;;;;;;;13.45;11.52;;;14.30;76.00;;;;;;4968928;28;20088;-39
2021/05/03 10:59:19;;;;;;;15.10;12.50;;;14.30;75.40;;;;;;4979510;28;20031;-38
2021/05/03 11:01:54;;;;;;;12.30;10.98;;;14.40;74.20;;;;;;4968560;28;20176;-38
2021/05/03 11:04:29;;;;;;;13.73;11.98;;;14.40;74.40;;;;;;4979071;28;20023;-38
2021/05/03 11:06:58;;;;;;;16.10;12.63;;;14.50;74.10;;;;;;4968860;28;20035;-38
2021/05/03 11:11:57;;;;;;;13.20;11.55;;;14.50;73.10;;;;;;4983409;28;20109;-42
2021/05/03 11:14:23;;;;;;;13.07;11.77;;;14.40;73.50;;;;;;4980503;28;20529;-37
2021/05/03 11:16:53;;;;;;;12.23;11.02;;;14.40;73.30;;;;;;4987310;28;20074;-38
2021/05/03 11:23:04;;;;;;;10.60;9.45;;;14.50;70.60;;;;;;4984233;28;20034;-38
2021/05/03 11:25:35;;;;;;;9.18;8.25;;;14.60;70.00;;;;;;4978123;28;20026;-35
2021/05/03 11:33:14;;;;;;;9.18;8.25;;;14.60;68.80;;;;;;4968838;28;20520;-40
2021/05/03 11:38:30;;;;;;;9.40;8.40;;;14.70;69.60;;;;;;4979515;28;20101;-35
2021/05/03 11:46:32;;;;;;;9.15;8.25;;;14.70;67.20;;;;;;4982180;28;20168;-40
2021/05/03 11:49:01;;;;;;;10.90;9.38;;;14.70;67.80;;;;;;4983999;28;20101;-39
2021/05/03 11:51:27;;;;;;;11.38;8.80;;;14.80;67.70;;;;;;4978832;28;20072;-38
2021/05/03 11:53:53;;;;;;;8.73;7.82;;;14.90;67.10;;;;;;4985306;28;20031;-40
2021/05/03 11:56:24;;;;;;;8.00;7.22;;;15.00;66.60;;;;;;4975547;28;20025;-38
2021/05/03 11:58:55;;;;;;;10.55;8.23;;;15.10;65.60;;;;;;4984469;28;20034;-39
2021/05/03 12:01:22;;;;;;;9.20;8.27;;;15.30;63.90;;;;;;4984019;28;20084;-39
2021/05/03 12:03:51;;;;;;;12.13;8.82;;;15.30;64.80;;;;;;4984771;28;20124;-39
2021/05/03 12:06:40;;;;;;;8.90;8.00;;;15.40;64.10;;;;;;4966841;28;20672;-38
2021/05/03 12:09:09;;;;;;;8.73;7.93;;;15.30;62.10;;;;;;4967955;28;20117;-40
2021/05/03 12:11:39;;;;;;;10.20;8.88;;;15.20;63.00;;;;;;4968721;28;20030;-38
2021/05/03 12:14:05;;;;;;;9.20;8.30;;;15.10;62.80;;;;;;4968466;28;20045;-40
2021/05/03 12:16:39;;;;;;;10.25;8.95;;;15.10;63.10;;;;;;4974862;28;20041;-38
2021/05/03 12:19:16;;;;;;;10.40;8.90;;;15.10;64.10;;;;;;4985874;28;20030;-39
2021/05/03 12:21:42;;;;;;;9.52;8.52;;;15.10;63.10;;;;;;4981545;28;20015;-41
2021/05/03 12:24:19;;;;;;;7.80;6.95;;;15.10;62.30;;;;;;4966778;28;20022;-38
2021/05/03 12:26:59;;;;;;;9.05;7.60;;;15.20;62.90;;;;;;4977245;28;20023;-40
2021/05/03 12:29:26;;;;;;;9.05;6.88;;;15.30;62.00;;;;;;4984601;28;20509;-38
2021/05/03 12:31:52;;;;;;;9.23;7.32;;;15.30;62.20;;;;;;4972551;28;20596;-39
2021/05/03 12:34:21;;;;;;;10.27;8.63;;;15.40;61.70;;;;;;4986608;28;20045;-39
2021/05/03 12:37:05;;;;;;;8.77;7.97;;;15.50;62.40;;;;;;4973276;28;20038;-39
2021/05/03 12:39:35;;;;;;;11.50;9.50;;;15.60;62.80;;;;;;4985292;28;20027;-40
2021/05/03 12:42:11;;;;;;;11.55;9.23;;;15.70;62.10;;;;;;4973574;28;20081;-37
2021/05/03 12:44:46;;;;;;;11.35;10.30;;;15.70;62.10;;;;;;4985518;28;20489;-40
2021/05/03 12:47:46;;;;;;;10.32;9.32;;;15.60;62.10;;;;;;4972874;28;20118;-38
2021/05/03 12:50:23;;;;;;;10.30;9.32;;;15.60;62.90;;;;;;4967006;28;20035;-39
2021/05/03 12:53:07;;;;;;;9.55;8.65;;;15.80;63.50;;;;;;4976806;28;20022;-39
2021/05/03 12:55:58;;;;;;;13.23;10.95;;;15.90;62.80;;;;;;4967468;28;20395;-39
2021/05/03 12:58:34;;;;;;;11.15;9.93;;;16.00;60.90;;;;;;4975057;28;20478;-37
2021/05/03 13:29:20;;;;;;;8.50;7.70;;;16.10;59.40;;;;;;4971884;28;20793;-38
2021/05/03 13:31:47;;;;;;;9.05;7.22;;;16.20;58.50;;;;;;4983875;28;20038;-38
2021/05/03 13:34:18;;;;;;;8.38;7.57;;;16.10;57.30;;;;;;4974216;28;20026;-38
2021/05/03 13:36:50;;;;;;;8.73;7.68;;;16.10;57.00;;;;;;4985173;28;20077;-41
2021/05/03 13:39:16;;;;;;;8.57;6.85;;;16.10;57.30;;;;;;4980486;28;20153;-41
2021/05/03 13:41:44;;;;;;;7.57;6.78;;;16.10;57.80;;;;;;4965857;28;20251;-39
2021/05/03 13:44:12;;;;;;;9.32;7.47;;;16.20;58.10;;;;;;4978223;28;20757;-40
2021/05/03 13:46:38;;;;;;;8.57;7.68;;;16.30;57.40;;;;;;4966047;28;20027;-40
2021/05/03 13:49:04;;;;;;;7.90;7.18;;;16.30;57.50;;;;;;4977445;28;20825;-39
2021/05/03 13:51:30;;;;;;;11.55;7.80;;;16.40;57.70;;;;;;4986306;28;20026;-41
2021/05/03 13:53:58;;;;;;;10.98;9.02;;;16.40;57.00;;;;;;4984905;28;20081;-38
2021/05/03 13:56:24;;;;;;;7.55;6.85;;;16.40;56.60;;;;;;4985701;28;20030;-39